createdAt,value
2018-03-27T00:00:56.280Z,100329.48
2018-03-27T00:03:23.698Z,100333.14
2018-03-27T00:05:51.053Z,100331.13
2018-03-27T00:08:18.448Z,100331.81
2018-03-27T00:10:45.832Z,100332.55
2018-03-27T00:13:13.220Z,100328.34
2018-03-27T00:15:40.605Z,100332.54
2018-03-27T00:18:07.997Z,100329.55
2018-03-27T00:20:35.403Z,100328.08
2018-03-27T00:23:02.788Z,100332.37
2018-03-27T00:25:30.179Z,100330.86
2018-03-27T00:28:09.209Z,100337.06
2018-03-27T00:30:48.365Z,100336.72
2018-03-27T00:33:27.327Z,100334.88
2018-03-27T00:36:06.512Z,100334.24
2018-03-27T00:38:45.768Z,100333.83
2018-03-27T00:44:26.064Z,100332.63
2018-03-27T00:46:53.479Z,100330.81
2018-03-27T00:49:20.864Z,100338.19
2018-03-27T00:51:48.240Z,100336.13
2018-03-27T00:54:15.632Z,100337.50
2018-03-27T00:56:43.021Z,100332.94
2018-03-27T00:59:10.408Z,100333.58
2018-03-27T01:01:37.793Z,100327.28
2018-03-27T01:04:05.188Z,100332.31
2018-03-27T01:06:32.572Z,100329.76
2018-03-27T01:08:59.954Z,100329.76
2018-03-27T01:11:27.348Z,100323.16
2018-03-27T01:13:56.977Z,100317.50
2018-03-27T01:16:24.364Z,100314.21
2018-03-27T01:18:51.744Z,100315.05
2018-03-27T01:21:19.136Z,100312.15
2018-03-27T01:23:46.520Z,100308.27
2018-03-27T01:26:13.905Z,100310.26
2018-03-27T01:28:41.301Z,100306.93
2018-03-27T01:31:08.676Z,100312.30
2018-03-27T01:33:36.071Z,100312.76
2018-03-27T01:36:03.453Z,100308.16
2018-03-27T01:38:30.837Z,100307.19
2018-03-27T01:40:58.220Z,100308.45
2018-03-27T01:43:25.612Z,100309.81
2018-03-27T01:45:52.992Z,100305.30
2018-03-27T01:48:20.375Z,100306.27
2018-03-27T01:50:47.760Z,100307.20
2018-03-27T01:53:15.144Z,100298.37
2018-03-27T01:55:42.540Z,100299.89
2018-03-27T01:58:09.920Z,100293.00
2018-03-27T02:00:37.305Z,100294.99
2018-03-27T02:03:04.692Z,100293.92
2018-03-27T02:05:32.072Z,100291.37
2018-03-27T02:07:59.452Z,100279.20
2018-03-27T02:10:26.848Z,100287.58
2018-03-27T02:12:59.901Z,100288.18
2018-03-27T02:15:32.812Z,100287.05
2018-03-27T02:18:05.864Z,100280.44
2018-03-27T02:20:38.866Z,100287.64
2018-03-27T02:23:12.180Z,100286.77
2018-03-27T02:25:39.576Z,100287.82
2018-03-27T02:28:06.963Z,100289.16
2018-03-27T02:30:34.344Z,100289.91
2018-03-27T02:33:01.741Z,100282.84
2018-03-27T02:35:29.117Z,100285.92
2018-03-27T02:37:56.533Z,100283.45
2018-03-27T02:40:23.917Z,100288.66
2018-03-27T02:42:51.300Z,100284.30
2018-03-27T02:45:18.688Z,100277.55
2018-03-27T02:47:46.087Z,100277.64
2018-03-27T02:50:13.471Z,100278.30
2018-03-27T02:52:40.849Z,100275.34
2018-03-27T02:55:08.240Z,100275.04
2018-03-27T02:57:35.628Z,100275.44
2018-03-27T03:00:03.040Z,100270.34
2018-03-27T03:02:30.436Z,100276.80
2018-03-27T03:04:57.823Z,100274.30
2018-03-27T03:07:25.216Z,100273.09
2018-03-27T03:09:52.602Z,100272.02
2018-03-27T03:12:19.999Z,100267.08
2018-03-27T03:14:47.392Z,100269.31
2018-03-27T03:17:14.781Z,100262.32
2018-03-27T03:19:42.173Z,100260.41
2018-03-27T03:22:09.576Z,100262.14
2018-03-27T03:24:36.969Z,100264.13
2018-03-27T03:27:04.361Z,100263.30
2018-03-27T03:29:31.756Z,100262.16
2018-03-27T03:31:59.152Z,100258.61
2018-03-27T03:34:26.558Z,100262.88
2018-03-27T03:36:53.942Z,100256.41
2018-03-27T03:39:21.336Z,100261.42
2018-03-27T03:41:48.733Z,100260.91
2018-03-27T03:44:16.120Z,100258.70
2018-03-27T03:46:43.520Z,100259.09
2018-03-27T03:49:10.917Z,100256.31
2018-03-27T03:51:38.313Z,100258.44
2018-03-27T03:54:05.711Z,100258.45
2018-03-27T03:56:33.104Z,100263.22
2018-03-27T03:59:00.508Z,100260.41
2018-03-27T04:01:27.896Z,100262.00
2018-03-27T04:03:55.288Z,100260.77
2018-03-27T04:06:22.689Z,100256.64
2018-03-27T04:08:50.081Z,100254.81
2018-03-27T04:11:17.481Z,100254.00
2018-03-27T04:13:44.874Z,100250.87
2018-03-27T04:16:12.270Z,100247.27
2018-03-27T04:18:39.660Z,100252.02
2018-03-27T04:21:07.093Z,100246.61
2018-03-27T04:23:34.482Z,100246.20
2018-03-27T04:26:01.895Z,100243.31
2018-03-27T04:28:29.285Z,100241.33
2018-03-27T04:30:56.689Z,100237.80
2018-03-27T04:33:24.080Z,100234.18
2018-03-27T04:35:51.468Z,100238.95
2018-03-27T04:38:18.871Z,100230.30
2018-03-27T04:40:46.316Z,100227.34
2018-03-27T04:43:13.664Z,100229.64
2018-03-27T04:45:41.061Z,100223.80
2018-03-27T04:48:08.457Z,100225.02
2018-03-27T04:50:35.848Z,100221.65
2018-03-27T04:53:03.256Z,100225.61
2018-03-27T04:55:30.647Z,100226.36
2018-03-27T04:57:58.047Z,100218.94
2018-03-27T05:00:25.448Z,100217.05
2018-03-27T05:02:52.859Z,100221.09
2018-03-27T05:05:20.233Z,100214.73
2018-03-27T05:07:47.692Z,100212.11
2018-03-27T05:10:15.088Z,100219.43
2018-03-27T05:12:42.477Z,100211.45
2018-03-27T05:15:09.877Z,100214.34
2018-03-27T05:17:37.261Z,100216.87
2018-03-27T05:20:04.661Z,100210.72
2018-03-27T05:22:32.052Z,100210.54
2018-03-27T05:24:59.436Z,100209.49
2018-03-27T05:27:26.836Z,100215.58
2018-03-27T05:29:54.228Z,100210.81
2018-03-27T05:32:21.629Z,100209.23
2018-03-27T05:34:49.020Z,100207.92
2018-03-27T05:37:16.420Z,100207.17
2018-03-27T05:39:43.813Z,100204.28
2018-03-27T05:42:11.652Z,100203.31
2018-03-27T05:44:39.146Z,100203.16
2018-03-27T05:47:06.568Z,100201.75
2018-03-27T05:49:33.965Z,100201.65
2018-03-27T05:52:01.376Z,100201.33
2018-03-27T05:54:28.768Z,100202.31
2018-03-27T05:56:56.168Z,100193.59
2018-03-27T05:59:23.578Z,100202.83
2018-03-27T06:01:50.964Z,100198.68
2018-03-27T06:04:18.359Z,100200.16
2018-03-27T06:06:45.746Z,100195.31
2018-03-27T06:09:13.154Z,100194.39
2018-03-27T06:11:40.541Z,100196.12
2018-03-27T06:14:07.981Z,100202.12
2018-03-27T06:16:52.173Z,100197.19
2018-03-27T06:19:19.573Z,100195.45
2018-03-27T06:21:46.987Z,100194.54
2018-03-27T06:24:14.369Z,100194.45
2018-03-27T06:26:41.757Z,100195.74
2018-03-27T06:29:09.168Z,100194.36
2018-03-27T06:31:36.585Z,100193.25
2018-03-27T06:34:03.971Z,100188.61
2018-03-27T06:36:31.414Z,100183.16
2018-03-27T06:38:58.810Z,100185.06
2018-03-27T06:41:26.188Z,100177.33
2018-03-27T06:43:53.577Z,100182.17
2018-03-27T06:46:20.965Z,100173.38
2018-03-27T06:48:48.364Z,100170.47
2018-03-27T06:51:15.757Z,100177.66
2018-03-27T06:53:43.161Z,100174.19
2018-03-27T06:56:10.543Z,100167.36
2018-03-27T06:58:37.936Z,100168.81
2018-03-27T07:01:05.324Z,100174.12
2018-03-27T07:03:32.750Z,100174.38
2018-03-27T07:06:00.135Z,100179.70
2018-03-27T07:08:27.573Z,100176.48
2018-03-27T07:10:54.969Z,100185.69
2018-03-27T07:13:22.401Z,100178.84
2018-03-27T07:15:49.851Z,100177.58
2018-03-27T07:18:17.220Z,100177.62
2018-03-27T07:20:44.705Z,100172.66
2018-03-27T07:23:12.072Z,100170.20
2018-03-27T07:25:39.466Z,100169.62
2018-03-27T07:28:06.856Z,100165.54
2018-03-27T07:30:34.253Z,100170.23
2018-03-27T07:33:01.623Z,100157.87
2018-03-27T07:35:29.007Z,100156.17
2018-03-27T07:37:56.401Z,100152.16
2018-03-27T07:40:23.783Z,100151.31
2018-03-27T07:42:51.172Z,100151.65
2018-03-27T07:45:18.561Z,100141.78
2018-03-27T07:47:45.944Z,100141.80
2018-03-27T07:50:13.408Z,100144.50
2018-03-27T07:52:40.792Z,100138.11
2018-03-27T07:55:08.173Z,100138.09
2018-03-27T07:57:35.565Z,100138.80
2018-03-27T08:00:02.958Z,100126.39
2018-03-27T08:02:30.345Z,100121.33
2018-03-27T08:04:57.729Z,100114.02
2018-03-27T08:07:25.127Z,100111.61
2018-03-27T08:09:52.510Z,100103.38
2018-03-27T08:12:19.905Z,100097.53
2018-03-27T08:14:47.296Z,100097.71
2018-03-27T08:17:14.679Z,100099.94
2018-03-27T08:19:42.068Z,100098.64
2018-03-27T08:22:09.465Z,100093.75
2018-03-27T08:24:36.860Z,100088.67
2018-03-27T08:27:04.240Z,100087.16
2018-03-27T08:29:31.713Z,100090.93
2018-03-27T08:31:59.114Z,100075.95
2018-03-27T08:34:26.595Z,100080.91
2018-03-27T08:36:54.135Z,100074.61
2018-03-27T08:39:21.521Z,100073.92
2018-03-27T08:41:48.912Z,100063.33
2018-03-27T08:44:16.293Z,100061.42
2018-03-27T08:46:43.684Z,100066.83
2018-03-27T08:49:11.083Z,100063.45
2018-03-27T08:51:38.472Z,100059.98
2018-03-27T08:54:05.873Z,100057.22
2018-03-27T08:56:33.327Z,100058.55
2018-03-27T08:59:00.773Z,100060.66
2018-03-27T09:01:28.196Z,100056.06
2018-03-27T09:03:56.523Z,100058.27
2018-03-27T09:06:23.928Z,100054.42
2018-03-27T09:08:51.585Z,100042.88
2018-03-27T09:11:18.961Z,100044.11
2018-03-27T09:13:46.348Z,100044.23
2018-03-27T09:16:14.817Z,100041.56
2018-03-27T09:18:42.200Z,100040.11
2018-03-27T09:21:09.585Z,100036.87
2018-03-27T09:23:36.973Z,100033.09
2018-03-27T09:26:04.448Z,100031.63
2018-03-27T09:28:31.860Z,100029.73
2018-03-27T09:30:59.236Z,100027.08
2018-03-27T09:33:26.627Z,100021.14
2018-03-27T09:35:54.020Z,100013.37
2018-03-27T09:38:21.404Z,100017.72
2018-03-27T09:40:49.523Z,100014.09
2018-03-27T09:43:16.906Z,100011.96
2018-03-27T09:45:44.296Z,100008.02
2018-03-27T09:48:18.392Z,100016.17
2018-03-27T09:50:45.775Z,100005.95
2018-03-27T09:53:13.216Z,100004.59
2018-03-27T09:55:40.598Z,99999.19
2018-03-27T09:58:07.995Z,99995.81
2018-03-27T10:00:41.026Z,99986.59
2018-03-27T10:03:08.418Z,99983.54
2018-03-27T10:05:35.797Z,99986.20
2018-03-27T10:08:03.197Z,99977.05
2018-03-27T10:10:30.577Z,99968.98
2018-03-27T10:12:57.975Z,99968.05
2018-03-27T10:15:25.366Z,99959.05
2018-03-27T10:17:52.758Z,99955.41
2018-03-27T10:20:20.149Z,99958.48
2018-03-27T10:22:48.449Z,99957.86
2018-03-27T10:25:15.840Z,99956.31
2018-03-27T10:27:43.232Z,99954.69
2018-03-27T10:30:10.625Z,99952.05
2018-03-27T10:32:38.009Z,99941.91
2018-03-27T10:35:05.389Z,99934.16
2018-03-27T10:37:32.777Z,99926.14
2018-03-27T10:40:00.164Z,99923.36
2018-03-27T10:42:27.551Z,99920.89
2018-03-27T10:44:54.936Z,99917.97
2018-03-27T10:47:22.323Z,99909.84
2018-03-27T10:49:49.744Z,99906.12
2018-03-27T10:52:17.132Z,99894.40
2018-03-27T10:54:44.512Z,99890.84
2018-03-27T10:57:11.894Z,99889.45
2018-03-27T10:59:39.282Z,99885.16
2018-03-27T11:02:06.682Z,99879.89
2018-03-27T11:04:34.074Z,99872.62
2018-03-27T11:07:01.448Z,99869.04
2018-03-27T11:09:28.830Z,99858.53
2018-03-27T11:11:56.213Z,99845.12
2018-03-27T11:14:23.591Z,99841.43
2018-03-27T11:16:51.412Z,99833.70
2018-03-27T11:19:18.797Z,99836.28
2018-03-27T11:21:46.181Z,99838.50
2018-03-27T11:24:13.574Z,99831.26
2018-03-27T11:26:40.956Z,99827.45
2018-03-27T11:29:08.353Z,99830.32
2018-03-27T11:31:35.740Z,99819.63
2018-03-27T11:34:03.131Z,99819.44
2018-03-27T11:36:30.513Z,99818.86
2018-03-27T11:38:57.896Z,99809.21
2018-03-27T11:41:25.289Z,99814.53
2018-03-27T11:43:52.672Z,99806.67
2018-03-27T11:46:20.052Z,99800.80
2018-03-27T11:48:47.449Z,99796.59
2018-03-27T11:51:14.825Z,99784.65
2018-03-27T11:53:42.220Z,99786.47
2018-03-27T11:56:09.608Z,99777.74
2018-03-27T11:58:36.995Z,99771.41
2018-03-27T12:01:04.397Z,99763.73
2018-03-27T12:03:31.776Z,99758.11
2018-03-27T12:05:59.169Z,99750.72
2018-03-27T12:08:26.552Z,99750.55
2018-03-27T12:10:53.960Z,99740.92
2018-03-27T12:13:21.341Z,99735.64
2018-03-27T12:15:48.725Z,99728.39
2018-03-27T12:18:16.113Z,99726.68
2018-03-27T12:20:43.504Z,99719.73
2018-03-27T12:23:10.884Z,99718.06
2018-03-27T12:25:38.281Z,99715.02
2018-03-27T12:28:05.660Z,99717.18
2018-03-27T12:30:33.057Z,99715.34
2018-03-27T12:33:00.436Z,99709.34
2018-03-27T12:35:27.833Z,99706.73
2018-03-27T12:37:55.216Z,99703.15
2018-03-27T12:40:22.597Z,99703.03
2018-03-27T12:42:49.992Z,99707.00
2018-03-27T12:45:17.395Z,99697.41
2018-03-27T12:47:44.810Z,99692.34
2018-03-27T12:50:12.149Z,99684.94
2018-03-27T12:52:39.544Z,99686.13
2018-03-27T12:55:06.928Z,99675.27
2018-03-27T12:57:34.913Z,99679.73
2018-03-27T13:00:02.292Z,99669.78
2018-03-27T13:02:29.684Z,99664.36
2018-03-27T13:04:57.064Z,99663.61
2018-03-27T13:07:24.452Z,99658.47
2018-03-27T13:09:51.835Z,99664.50
2018-03-27T13:12:19.227Z,99656.13
2018-03-27T13:14:46.612Z,99650.05
2018-03-27T13:17:14.000Z,99651.07
2018-03-27T13:19:41.389Z,99641.44
2018-03-27T13:22:08.779Z,99647.10
2018-03-27T13:24:36.160Z,99630.38
2018-03-27T13:27:03.548Z,99633.70
2018-03-27T13:29:30.936Z,99633.77
2018-03-27T13:31:58.332Z,99640.00
2018-03-27T13:34:25.720Z,99636.19
2018-03-27T13:36:53.116Z,99634.66
2018-03-27T13:39:20.500Z,99637.00
2018-03-27T13:41:47.896Z,99639.20
2018-03-27T13:44:15.290Z,99640.94
2018-03-27T13:46:42.895Z,99636.36
2018-03-27T13:49:10.284Z,99640.03
2018-03-27T13:51:37.664Z,99635.16
2018-03-27T13:54:05.065Z,99633.98
2018-03-27T13:56:32.448Z,99629.74
2018-03-27T13:58:59.844Z,99629.56
2018-03-27T14:01:27.237Z,99622.73
2018-03-27T14:03:54.628Z,99618.53
2018-03-27T14:06:22.017Z,99615.82
2018-03-27T14:08:49.404Z,99618.02
2018-03-27T14:11:16.867Z,99608.22
2018-03-27T14:13:44.183Z,99609.84
2018-03-27T14:16:11.572Z,99612.87
2018-03-27T14:18:38.953Z,99600.55
2018-03-27T14:21:06.344Z,99597.87
2018-03-27T14:23:33.724Z,99590.21
2018-03-27T14:26:01.116Z,99593.89
2018-03-27T14:28:28.502Z,99592.48
2018-03-27T14:30:55.884Z,99591.15
2018-03-27T14:33:23.264Z,99587.61
2018-03-27T14:35:50.648Z,99581.98
2018-03-27T14:38:18.084Z,99577.65
2018-03-27T14:40:45.424Z,99581.92
2018-03-27T14:43:12.823Z,99576.58
2018-03-27T14:45:40.197Z,99575.44
2018-03-27T14:48:07.600Z,99567.36
2018-03-27T14:50:34.974Z,99563.25
2018-03-27T14:53:02.386Z,99561.11
2018-03-27T14:55:29.765Z,99565.38
2018-03-27T14:57:57.165Z,99551.06
2018-03-27T15:00:24.548Z,99549.99
2018-03-27T15:02:51.948Z,99542.44
2018-03-27T15:05:19.337Z,99542.97
2018-03-27T15:07:46.759Z,99538.53
2018-03-27T15:10:14.153Z,99530.55
2018-03-27T15:12:41.529Z,99531.67
2018-03-27T15:15:08.916Z,99537.80
2018-03-27T15:17:36.309Z,99538.52
2018-03-27T15:20:03.684Z,99538.45
2018-03-27T15:22:31.065Z,99537.83
2018-03-27T15:24:58.456Z,99527.30
2018-03-27T15:27:25.856Z,99524.09
2018-03-27T15:29:53.252Z,99521.96
2018-03-27T15:32:20.628Z,99508.95
2018-03-27T15:34:48.029Z,99499.51
2018-03-27T15:37:15.400Z,99496.64
2018-03-27T15:39:42.850Z,99489.03
2018-03-27T15:42:10.201Z,99484.71
2018-03-27T15:44:37.596Z,99473.47
2018-03-27T15:47:04.986Z,99475.72
2018-03-27T15:49:32.434Z,99469.95
2018-03-27T15:51:59.808Z,99467.90
2018-03-27T15:54:27.204Z,99473.77
2018-03-27T15:56:54.587Z,99469.02
2018-03-27T15:59:21.993Z,99473.81
2018-03-27T16:01:49.368Z,99472.89
2018-03-27T16:04:16.760Z,99469.57
2018-03-27T16:06:44.145Z,99470.84
2018-03-27T16:09:11.524Z,99463.38
2018-03-27T16:11:38.916Z,99457.88
2018-03-27T16:14:07.199Z,99461.78
2018-03-27T16:16:34.612Z,99468.52
2018-03-27T16:19:02.005Z,99468.42
2018-03-27T16:21:29.388Z,99459.94
2018-03-27T16:23:56.769Z,99452.11
2018-03-27T16:26:24.209Z,99454.64
2018-03-27T16:28:51.601Z,99462.37
2018-03-27T16:31:19.010Z,99465.33
2018-03-27T16:33:46.405Z,99454.38
2018-03-27T16:36:13.788Z,99456.09
2018-03-27T16:38:41.168Z,99460.37
2018-03-27T16:41:08.556Z,99455.02
2018-03-27T16:43:35.930Z,99450.76
2018-03-27T16:46:03.324Z,99450.08
2018-03-27T16:48:30.701Z,99451.80
2018-03-27T16:50:58.085Z,99448.72
2018-03-27T16:53:25.479Z,99446.70
2018-03-27T16:55:52.849Z,99437.14
2018-03-27T16:58:20.243Z,99443.48
2018-03-27T17:00:47.695Z,99433.09
2018-03-27T17:03:15.081Z,99433.81
2018-03-27T17:05:42.458Z,99429.83
2018-03-27T17:08:09.868Z,99437.30
2018-03-27T17:10:38.272Z,99421.43
2018-03-27T17:13:05.716Z,99434.42
2018-03-27T17:15:33.789Z,99423.81
2018-03-27T17:18:01.331Z,99416.05
2018-03-27T17:20:29.728Z,99424.56
2018-03-27T17:22:57.116Z,99414.41
2018-03-27T17:25:24.503Z,99413.66
2018-03-27T17:27:51.898Z,99408.21
2018-03-27T17:30:19.268Z,99410.45
2018-03-27T17:32:46.644Z,99407.66
2018-03-27T17:35:14.136Z,99398.09
2018-03-27T17:37:41.510Z,99397.52
2018-03-27T17:40:08.912Z,99404.84
2018-03-27T17:42:36.291Z,99405.73
2018-03-27T17:45:03.714Z,99404.98
2018-03-27T17:47:31.126Z,99402.05
2018-03-27T17:49:58.476Z,99395.05
2018-03-27T17:52:25.853Z,99391.69
2018-03-27T17:54:54.137Z,99390.70
2018-03-27T17:57:21.540Z,99384.53
2018-03-27T17:59:50.096Z,99385.96
2018-03-27T18:02:17.513Z,99385.77
2018-03-27T18:04:44.904Z,99382.32
2018-03-27T18:07:12.328Z,99384.55
2018-03-27T18:09:40.396Z,99385.69
2018-03-27T18:12:07.784Z,99385.27
2018-03-27T18:14:35.278Z,99377.43
2018-03-27T18:17:02.733Z,99382.72
2018-03-27T18:19:31.077Z,99374.73
2018-03-27T18:21:58.457Z,99366.95
2018-03-27T18:24:26.272Z,99362.31
2018-03-27T18:26:53.899Z,99365.95
2018-03-27T18:29:21.388Z,99351.36
2018-03-27T18:31:48.928Z,99358.21
2018-03-27T18:34:17.504Z,99354.25
2018-03-27T18:36:44.894Z,99346.09
2018-03-27T18:39:12.341Z,99341.25
2018-03-27T18:41:39.733Z,99341.91
2018-03-27T18:44:07.148Z,99336.99
2018-03-27T18:46:34.543Z,99338.72
2018-03-27T18:49:01.996Z,99324.50
2018-03-27T18:51:29.377Z,99328.47
2018-03-27T18:53:56.801Z,99333.73
2018-03-27T18:56:24.263Z,99323.86
2018-03-27T18:58:51.712Z,99328.82
2018-03-27T19:01:19.089Z,99330.84
2018-03-27T19:03:46.477Z,99311.77
2018-03-27T19:06:13.862Z,99305.08
2018-03-27T19:08:41.265Z,99301.04
2018-03-27T19:11:08.645Z,99298.37
2018-03-27T19:13:36.048Z,99303.67
2018-03-27T19:16:03.522Z,99288.89
2018-03-27T19:18:30.859Z,99292.63
2018-03-27T19:20:58.240Z,99289.30
2018-03-27T19:23:25.741Z,99294.48
2018-03-27T19:25:53.162Z,99290.38
2018-03-27T19:28:20.925Z,99290.96
2018-03-27T19:30:48.303Z,99290.45
2018-03-27T19:33:15.677Z,99286.06
2018-03-27T19:35:43.065Z,99287.86
2018-03-27T19:38:10.436Z,99282.20
2018-03-27T19:40:37.826Z,99282.30
2018-03-27T19:43:05.200Z,99274.45
2018-03-27T19:45:32.586Z,99275.32
2018-03-27T19:47:59.964Z,99274.89
2018-03-27T19:50:27.348Z,99274.34
2018-03-27T19:52:54.724Z,99279.73
2018-03-27T19:55:22.110Z,99274.89
2018-03-27T19:57:49.486Z,99275.60
2018-03-27T20:00:16.876Z,99271.63
2018-03-27T20:02:44.254Z,99262.02
2018-03-27T20:05:11.640Z,99255.75
2018-03-27T20:07:39.030Z,99256.96
2018-03-27T20:10:06.409Z,99247.88
2018-03-27T20:12:33.792Z,99248.83
2018-03-27T20:15:01.168Z,99244.84
2018-03-27T20:17:28.558Z,99245.17
2018-03-27T20:19:55.943Z,99235.96
2018-03-27T20:22:23.333Z,99234.13
2018-03-27T20:24:50.725Z,99240.55
2018-03-27T20:27:18.155Z,99231.57
2018-03-27T20:29:45.488Z,99231.41
2018-03-27T20:32:12.868Z,99223.54
2018-03-27T20:34:40.249Z,99218.48
2018-03-27T20:37:07.637Z,99211.30
2018-03-27T20:39:35.021Z,99215.23
2018-03-27T20:42:02.400Z,99217.95
2018-03-27T20:44:29.777Z,99215.25
2018-03-27T20:46:57.179Z,99205.72
2018-03-27T20:49:24.540Z,99204.72
2018-03-27T20:51:51.935Z,99210.33
2018-03-27T20:54:19.312Z,99208.67
2018-03-27T20:56:46.750Z,99210.23
2018-03-27T20:59:14.087Z,99205.34
2018-03-27T21:01:41.460Z,99203.58
2018-03-27T21:04:08.851Z,99202.88
2018-03-27T21:06:36.220Z,99198.35
2018-03-27T21:09:03.620Z,99188.83
2018-03-27T21:11:30.996Z,99192.11
2018-03-27T21:13:58.380Z,99193.08
2018-03-27T21:16:25.763Z,99185.87
2018-03-27T21:18:53.152Z,99189.42
2018-03-27T21:21:20.545Z,99181.77
2018-03-27T21:23:47.933Z,99181.30
2018-03-27T21:26:15.309Z,99178.39
2018-03-27T21:28:42.700Z,99188.47
2018-03-27T21:31:10.084Z,99178.13
2018-03-27T21:33:37.456Z,99182.89
2018-03-27T21:36:04.844Z,99174.49
2018-03-27T21:38:32.245Z,99175.96
2018-03-27T21:40:59.630Z,99164.56
2018-03-27T21:43:27.012Z,99164.47
2018-03-27T21:45:54.401Z,99166.80
2018-03-27T21:48:21.786Z,99168.60
2018-03-27T21:50:49.173Z,99170.07
2018-03-27T21:53:16.552Z,99166.59
2018-03-27T21:55:43.943Z,99171.48
2018-03-27T21:58:11.363Z,99176.82
2018-03-27T22:00:38.722Z,99183.02
2018-03-27T22:03:06.101Z,99179.55
2018-03-27T22:05:33.492Z,99186.03
2018-03-27T22:08:00.871Z,99176.52
2018-03-27T22:10:28.272Z,99173.16
2018-03-27T22:12:55.656Z,99173.16
2018-03-27T22:15:23.040Z,99172.80
2018-03-27T22:17:50.420Z,99173.39
2018-03-27T22:20:17.797Z,99171.15
2018-03-27T22:22:45.183Z,99174.80
2018-03-27T22:25:12.560Z,99161.63
2018-03-27T22:27:39.944Z,99162.25
2018-03-27T22:30:07.325Z,99162.78
2018-03-27T22:32:34.716Z,99152.77
2018-03-27T22:35:02.088Z,99154.09
2018-03-27T22:37:29.477Z,99151.97
2018-03-27T22:39:56.869Z,99151.94
2018-03-27T22:42:24.244Z,99153.91
2018-03-27T22:44:51.628Z,99148.89
2018-03-27T22:47:19.017Z,99148.48
2018-03-27T22:49:46.397Z,99143.52
2018-03-27T22:52:13.783Z,99144.79
2018-03-27T22:54:41.174Z,99140.44
2018-03-27T22:57:08.545Z,99142.80
2018-03-27T22:59:35.924Z,99144.88
2018-03-27T23:02:03.304Z,99140.16
2018-03-27T23:04:30.692Z,99149.86
2018-03-27T23:06:58.071Z,99148.55
2018-03-27T23:09:25.676Z,99150.06
2018-03-27T23:11:53.291Z,99149.59
2018-03-27T23:14:20.672Z,99149.47
2018-03-27T23:16:48.063Z,99147.55
2018-03-27T23:19:15.445Z,99142.23
2018-03-27T23:21:42.820Z,99144.31
2018-03-27T23:24:10.210Z,99143.74
2018-03-27T23:26:37.591Z,99147.98
2018-03-27T23:29:04.972Z,99148.55
2018-03-27T23:31:32.348Z,99144.24
2018-03-27T23:33:59.736Z,99149.98
2018-03-27T23:36:27.112Z,99152.89
2018-03-27T23:38:54.491Z,99143.43
2018-03-27T23:41:21.888Z,99152.97
2018-03-27T23:43:49.269Z,99155.13
2018-03-27T23:46:16.663Z,99158.53
2018-03-27T23:48:44.036Z,99164.83
2018-03-27T23:51:11.429Z,99165.66
2018-03-27T23:53:38.803Z,99151.81
2018-03-27T23:56:06.187Z,99158.50
2018-03-27T23:58:33.561Z,99162.86
